Kezdőlap
METAR-TAF:

METAR-TAF

Repülőterek :

Lüderitz, Namíbia

földrajzi szélesség: 26-41S, földrajzi hosszúság: 015-15E, magasság: 130 m

Jelenlegi meteorológiai megfigyelések

A jelentés 46 perccel ezelõtt készült, 20:00 UTC
Hőmérséklet 13°C
Páratartalom 77%
Légköri nyomás 1022 hPa

METAR: FYLZ 192000Z AUTO /////KT //// // ////// 13/09 Q1022

Idő: 22:46 (20:46 UTC)

Előrejelzés

A jelentés 3 órával és 46 perccel ezelõtt készült, 17:00 UTC
Az előrejelzés 19-én 18 óra UTC és 20-én 03 óra UTC között érvényes
Déli szél 12 kt
Látótávolság 10 km, vagy több
felhőtlen 1500 m magasságban, és nincs gomolyfelhõ

TAF: FYLZ 191700Z 1918/2003 18012KT CAVOK

Meteorológiai megfigyelések és előrejelzések több, mint 4000 repülőtéren (METAR és TAF jelentéseket).

A térképen piros és sárga pontok jelzik az elérhető meteorológiai állomásokat.

Mozgassa az egeret a pont fölött, hogy megjelenjen az állomás neve.

Azután kattintson az időjárási megfigyelések és előrejelzések megtekintéséhez.

A térkép megváltoztatása: kattintson a fekete keresztel jelölt zöld gombra ráközelítéshez, a vonallal jelölt zöld gombra távolításhoz, vagy a zöld nyilakra a szomszédos térképek eléréséhez.


METAR-TAF: